Time;durP1;ratioP1;P1;durP2;ratioP2;P2;SDS_P1;SDS_P2;PMS_P1;PMS_P2;Temp;Humidity;BMP_temperature;BMP_pressure;BME280_temperature;BME280_humidity;BME280_pressure;Samples;Min_cycle;Max_cycle;Signal;HPM_P1;HPM_P2
2023/01/25 00:02:02;;;;;;;64.55;28.75;;;;;;;-0.20;94.08;103664.88;5040469;28;20056;-72
2023/01/25 00:04:27;;;;;;;65.65;28.63;;;;;;;-0.21;94.73;103655.94;5043496;28;20081;-72
2023/01/25 00:06:53;;;;;;;62.03;28.40;;;;;;;-0.17;94.63;103654.25;5027838;28;20121;-72
2023/01/25 00:09:21;;;;;;;66.43;28.77;;;;;;;-0.16;94.40;103664.06;5033479;28;20032;-75
2023/01/25 00:11:46;;;;;;;66.97;29.80;;;;;;;-0.19;94.48;103650.63;5049370;28;20028;-72
2023/01/25 00:14:13;;;;;;;72.50;29.70;;;;;;;-0.18;94.28;103660.47;5033658;28;20491;-73
2023/01/25 00:16:39;;;;;;;77.95;32.08;;;;;;;-0.19;94.02;103651.50;5029377;28;20041;-74
2023/01/25 00:19:06;;;;;;;72.35;29.63;;;;;;;-0.21;93.91;103647.94;5027244;28;20465;-72
2023/01/25 00:21:33;;;;;;;72.00;29.63;;;;;;;-0.18;93.60;103652.44;5029022;28;20095;-72
2023/01/25 00:23:58;;;;;;;81.45;33.03;;;;;;;-0.21;93.51;103645.25;5028936;28;20026;-72
2023/01/25 00:26:23;;;;;;;72.95;30.20;;;;;;;-0.22;93.40;103651.47;5027832;28;20032;-72
2023/01/25 00:28:50;;;;;;;87.18;35.85;;;;;;;-0.25;92.95;103651.41;5027819;28;20025;-72
2023/01/25 00:31:35;;;;;;;80.75;32.17;;;;;;;-0.27;93.51;103651.41;5028045;28;20481;-72
2023/01/25 00:34:25;;;;;;;78.53;33.72;;;;;;;-0.27;93.88;103648.72;5028716;28;20524;-72
2023/01/25 00:36:56;;;;;;;81.07;32.50;;;;;;;-0.25;93.93;103648.75;5024855;28;20566;-72
2023/01/25 00:39:23;;;;;;;85.50;35.88;;;;;;;-0.27;94.17;103645.16;5029507;28;20107;-72
2023/01/25 00:41:49;;;;;;;85.15;35.10;;;;;;;-0.26;94.45;103641.59;5028869;28;20029;-73
2023/01/25 00:44:14;;;;;;;81.82;34.20;;;;;;;-0.28;94.83;103640.66;5028611;28;20493;-71
2023/01/25 00:46:40;;;;;;;89.43;36.30;;;;;;;-0.28;94.97;103633.56;5029502;28;20445;-72
2023/01/25 00:49:05;;;;;;;93.18;33.65;;;;;;;-0.26;94.75;103634.47;5027384;28;20021;-72
2023/01/25 00:51:31;;;;;;;91.45;36.60;;;;;;;-0.27;94.52;103632.69;5027338;28;20055;-72
2023/01/25 00:53:57;;;;;;;93.47;36.22;;;;;;;-0.23;94.62;103641.66;5026885;28;20501;-72
2023/01/25 00:56:22;;;;;;;88.80;34.30;;;;;;;-0.22;94.41;103640.78;5027325;28;20040;-71
2023/01/25 00:58:48;;;;;;;92.65;35.97;;;;;;;-0.19;94.09;103642.59;5026232;28;20065;-73
2023/01/25 01:01:16;;;;;;;79.00;32.40;;;;;;;-0.19;94.04;103637.25;5027301;28;20095;-72
2023/01/25 01:03:41;;;;;;;91.60;37.25;;;;;;;-0.19;93.97;103630.09;5027826;28;20033;-72
2023/01/25 01:06:11;;;;;;;91.28;36.90;;;;;;;-0.20;94.18;103631.00;5026232;28;20127;-72
2023/01/25 01:08:41;;;;;;;92.22;37.83;;;;;;;-0.23;94.16;103630.03;5026569;28;20575;-72
2023/01/25 01:11:10;;;;;;;97.53;37.35;;;;;;;-0.26;94.42;103629.13;5027052;28;20440;-72
2023/01/25 01:13:36;;;;;;;93.72;37.50;;;;;;;-0.26;94.82;103623.78;5027089;28;20029;-72
2023/01/25 01:16:03;;;;;;;96.47;37.60;;;;;;;-0.27;94.85;103621.97;5030468;28;20480;-73
2023/01/25 01:18:37;;;;;;;95.10;36.17;;;;;;;-0.28;94.17;103625.53;5027014;28;20034;-72
2023/01/25 01:21:03;;;;;;;97.47;36.45;;;;;;;-0.27;94.50;103626.44;5028475;28;20411;-72
2023/01/25 01:23:29;;;;;;;95.10;36.25;;;;;;;-0.26;94.12;103631.78;5027224;28;20381;-73
2023/01/25 01:25:55;;;;;;;95.07;36.30;;;;;;;-0.22;94.21;103623.84;5026908;28;20392;-73
2023/01/25 01:28:20;;;;;;;91.03;36.67;;;;;;;-0.23;94.22;103625.63;5026759;28;20041;-72
2023/01/25 01:30:46;;;;;;;89.78;35.33;;;;;;;-0.26;93.88;103634.47;5026495;28;20084;-72
2023/01/25 01:33:11;;;;;;;98.30;38.63;;;;;;;-0.29;94.33;103625.47;5023919;28;20483;-72
2023/01/25 01:35:36;;;;;;;100.55;36.78;;;;;;;-0.26;93.74;103628.22;5031408;28;20040;-72
2023/01/25 01:38:02;;;;;;;92.63;37.17;;;;;;;-0.27;93.92;103623.75;5026672;28;20029;-74
2023/01/25 01:40:27;;;;;;;95.45;37.67;;;;;;;-0.30;94.41;103629.03;5029092;28;20033;-73
2023/01/25 01:43:05;;;;;;;91.70;36.55;;;;;;;-0.27;94.90;103624.66;5026060;28;20075;-73
2023/01/25 01:45:47;;;;;;;98.65;38.65;;;;;;;-0.27;94.83;103624.66;5041005;28;20037;-73
2023/01/25 01:48:40;;;;;;;103.15;41.67;;;;;;;-0.29;94.82;103623.69;5025048;28;20091;-72
2023/01/25 01:51:25;;;;;;;101.38;38.38;;;;;;;-0.28;94.78;103621.94;5025372;28;20408;-72
2023/01/25 01:53:56;;;;;;;98.82;37.38;;;;;;;-0.30;94.57;103619.25;5027506;28;20116;-73
2023/01/25 01:56:30;;;;;;;102.75;39.67;;;;;;;-0.28;94.63;103619.25;5046440;28;20036;-73
2023/01/25 01:58:57;;;;;;;95.30;38.88;;;;;;;-0.29;95.03;103618.34;5045976;28;20500;-72
2023/01/25 02:01:23;;;;;;;105.32;40.25;;;;;;;-0.28;94.91;103620.19;5028563;28;20028;-73
2023/01/25 02:03:49;;;;;;;98.95;36.58;;;;;;;-0.27;94.87;103623.75;5009841;28;20435;-73
2023/01/25 02:06:24;;;;;;;101.63;38.88;;;;;;;-0.33;94.82;103618.28;5025964;28;20370;-73
2023/01/25 02:08:51;;;;;;;100.93;38.50;;;;;;;-0.32;94.94;103621.00;5025303;28;20432;-73
2023/01/25 02:11:18;;;;;;;101.55;39.25;;;;;;;-0.29;94.27;103625.47;5026090;28;20029;-73
2023/01/25 02:13:43;;;;;;;102.75;39.25;;;;;;;-0.30;94.75;103615.66;5026801;28;20060;-75
2023/01/25 02:16:18;;;;;;;107.43;41.78;;;;;;;-0.32;94.77;103618.31;5027477;28;20119;-74
2023/01/25 02:18:43;;;;;;;97.25;38.88;;;;;;;-0.33;94.77;103624.56;5029907;28;20039;-75
2023/01/25 02:21:09;;;;;;;114.57;41.10;;;;;;;-0.33;94.56;103611.19;5026625;28;20045;-72
2023/01/25 02:23:46;;;;;;;98.00;37.88;;;;;;;-0.32;94.15;103622.78;5025920;28;20397;-74
2023/01/25 02:26:13;;;;;;;104.97;37.10;;;;;;;-0.30;95.26;103608.53;5027850;28;20029;-73
2023/01/25 02:28:45;;;;;;;99.43;39.08;;;;;;;-0.28;94.72;103605.88;5027611;28;20389;-74
2023/01/25 02:31:10;;;;;;;102.80;38.35;;;;;;;-0.29;94.67;103607.66;5047701;28;20036;-72
2023/01/25 02:33:36;;;;;;;102.97;38.92;;;;;;;-0.34;94.75;103598.66;5030461;28;20429;-73
2023/01/25 02:36:05;;;;;;;108.07;40.70;;;;;;;-0.37;94.44;103600.41;5024876;28;20469;-74
2023/01/25 02:38:34;;;;;;;112.32;40.90;;;;;;;-0.42;94.14;103604.75;5027366;28;20384;-72
2023/01/25 02:41:05;;;;;;;107.63;39.40;;;;;;;-0.43;94.77;103597.59;5029334;28;20037;-72
2023/01/25 02:43:33;;;;;;;106.95;38.92;;;;;;;-0.45;95.14;103591.34;5029842;28;20049;-72
2023/01/25 02:46:21;;;;;;;109.10;42.40;;;;;;;-0.43;95.11;103590.47;5013309;28;20029;-72
2023/01/25 02:48:47;;;;;;;112.88;43.53;;;;;;;-0.44;94.89;103593.13;5030194;28;20075;-72
2023/01/25 02:51:13;;;;;;;114.75;42.38;;;;;;;-0.45;94.79;103581.53;5026743;28;20033;-74
2023/01/25 02:53:39;;;;;;;105.50;40.03;;;;;;;-0.45;95.17;103581.53;5029884;28;20052;-73
2023/01/25 02:56:04;;;;;;;118.05;44.58;;;;;;;-0.48;94.75;103585.94;5045879;28;20120;-73
2023/01/25 02:58:30;;;;;;;111.60;42.97;;;;;;;-0.47;94.61;103587.72;5028235;28;20330;-72
2023/01/25 03:00:57;;;;;;;113.30;41.47;;;;;;;-0.50;94.62;103582.34;5029245;28;20064;-73
2023/01/25 03:03:22;;;;;;;101.15;38.20;;;;;;;-0.49;94.93;103584.13;5030012;28;20393;-72
2023/01/25 03:05:47;;;;;;;109.85;39.97;;;;;;;-0.48;95.05;103580.59;5028245;28;20042;-73
2023/01/25 03:08:13;;;;;;;116.05;40.97;;;;;;;-0.47;95.06;103582.38;5028748;28;20389;-74
2023/01/25 03:10:39;;;;;;;110.80;40.92;;;;;;;-0.45;94.91;103589.56;5032649;28;20025;-73
2023/01/25 03:13:04;;;;;;;109.75;40.60;;;;;;;-0.42;95.25;103588.69;5029451;28;20083;-72
2023/01/25 03:15:30;;;;;;;110.60;41.30;;;;;;;-0.39;95.33;103586.09;5029096;28;20489;-72
2023/01/25 03:17:56;;;;;;;108.70;40.95;;;;;;;-0.38;95.08;103579.84;5029104;28;20030;-73
2023/01/25 03:20:22;;;;;;;115.72;42.00;;;;;;;-0.37;95.03;103577.22;5028828;28;20443;-73
2023/01/25 03:22:47;;;;;;;115.75;41.58;;;;;;;-0.35;95.18;103572.78;5045734;28;20037;-73
2023/01/25 03:25:13;;;;;;;105.55;41.25;;;;;;;-0.37;94.59;103568.31;5019664;28;20412;-74
2023/01/25 03:27:48;;;;;;;110.60;40.08;;;;;;;-0.41;94.65;103569.13;5029329;28;20132;-73
2023/01/25 03:30:14;;;;;;;106.00;38.80;;;;;;;-0.46;94.94;103557.47;5030241;28;20113;-73
2023/01/25 03:32:40;;;;;;;118.68;39.63;;;;;;;-0.48;95.14;103551.16;5038491;28;20116;-73
2023/01/25 03:35:09;;;;;;;118.63;41.92;;;;;;;-0.49;95.10;103542.25;5038811;28;20045;-72
2023/01/25 03:37:34;;;;;;;118.70;40.10;;;;;;;-0.49;95.39;103541.34;5028418;28;20042;-73
2023/01/25 03:40:02;;;;;;;106.10;39.63;;;;;;;-0.53;95.01;103545.75;5030908;28;20075;-73
2023/01/25 03:42:28;;;;;;;109.05;39.28;;;;;;;-0.53;94.89;103543.06;5028910;28;20049;-72
2023/01/25 03:44:56;;;;;;;115.47;40.45;;;;;;;-0.53;94.44;103543.97;5028504;28;20563;-73
2023/01/25 03:47:21;;;;;;;119.18;40.72;;;;;;;-0.53;94.46;103543.06;5012324;28;20057;-74
2023/01/25 03:49:47;;;;;;;115.35;40.70;;;;;;;-0.52;93.79;103548.44;5029894;28;20535;-72
2023/01/25 03:52:16;;;;;;;114.00;39.05;;;;;;;-0.57;94.14;103541.22;5028509;28;20026;-73
2023/01/25 03:54:41;;;;;;;115.25;41.88;;;;;;;-0.63;93.88;103544.69;5029136;28;20552;-73
2023/01/25 03:57:08;;;;;;;123.07;40.05;;;;;;;-0.67;94.04;103542.81;5028384;28;20030;-73
2023/01/25 03:59:43;;;;;;;119.88;40.85;;;;;;;-0.65;94.81;103548.22;5027938;28;20475;-72
2023/01/25 04:02:08;;;;;;;117.00;41.83;;;;;;;-0.63;94.52;103549.13;5028906;28;20129;-75
2023/01/25 04:04:34;;;;;;;110.38;41.30;;;;;;;-0.65;94.55;103548.22;5028056;28;20021;-72
2023/01/25 04:07:00;;;;;;;125.60;41.30;;;;;;;-0.60;94.91;103549.19;5027931;28;20038;-73
2023/01/25 04:09:26;;;;;;;107.90;40.90;;;;;;;-0.60;95.06;103535.84;5030164;28;20449;-73
2023/01/25 04:11:55;;;;;;;115.30;40.65;;;;;;;-0.56;95.13;103541.25;5028221;28;20030;-73
2023/01/25 04:14:20;;;;;;;117.28;41.55;;;;;;;-0.52;95.16;103542.19;5028004;28;20400;-73
2023/01/25 04:16:55;;;;;;;112.63;39.58;;;;;;;-0.52;94.97;103536.84;5028021;28;20497;-74
2023/01/25 04:19:32;;;;;;;123.57;41.95;;;;;;;-0.53;94.24;103537.72;5027652;28;20033;-73
2023/01/25 04:21:59;;;;;;;117.05;40.60;;;;;;;-0.58;94.50;103534.06;5027447;28;20107;-72
2023/01/25 04:24:30;;;;;;;118.70;40.75;;;;;;;-0.60;94.73;103531.38;5033772;28;20547;-74
2023/01/25 04:26:56;;;;;;;130.98;43.92;;;;;;;-0.61;94.73;103532.22;5031354;28;20036;-72
2023/01/25 04:29:22;;;;;;;121.10;42.03;;;;;;;-0.62;94.08;103533.09;5045872;28;20488;-73
2023/01/25 04:31:47;;;;;;;126.55;41.95;;;;;;;-0.73;94.41;103526.69;5029501;28;20064;-73
2023/01/25 04:34:12;;;;;;;107.80;38.35;;;;;;;-0.75;94.49;103531.09;5034736;28;20124;-73
2023/01/25 04:36:38;;;;;;;121.22;41.47;;;;;;;-0.75;95.19;103528.41;5027588;28;20037;-73
2023/01/25 04:39:03;;;;;;;131.40;44.08;;;;;;;-0.76;94.85;103521.28;5029030;28;20461;-73
2023/01/25 04:41:29;;;;;;;127.20;40.38;;;;;;;-0.73;95.17;103520.44;5011504;28;20057;-73
2023/01/25 04:43:56;;;;;;;125.95;43.63;;;;;;;-0.71;95.51;103524.94;5011195;28;20042;-73
2023/01/25 04:46:21;;;;;;;125.18;41.88;;;;;;;-0.68;95.29;103522.31;5027968;28;20044;-73
2023/01/25 04:48:46;;;;;;;120.38;42.45;;;;;;;-0.68;95.18;103516.97;5027852;28;20554;-73
2023/01/25 04:51:14;;;;;;;131.02;42.42;;;;;;;-0.63;95.45;103522.41;5027691;28;20078;-73
2023/01/25 04:53:39;;;;;;;117.72;41.75;;;;;;;-0.65;95.62;103513.47;5011257;28;20025;-75
2023/01/25 04:56:05;;;;;;;119.20;40.88;;;;;;;-0.61;95.57;103517.97;5043038;28;20047;-73
2023/01/25 04:58:39;;;;;;;114.57;40.00;;;;;;;-0.64;95.52;103513.50;5027384;28;20037;-73
2023/01/25 05:01:04;;;;;;;117.82;40.63;;;;;;;-0.63;95.63;103504.59;5026567;28;20427;-73
2023/01/25 05:03:31;;;;;;;118.18;42.15;;;;;;;-0.60;95.55;103507.31;5027215;28;20152;-75
2023/01/25 05:05:56;;;;;;;125.50;43.25;;;;;;;-0.61;95.14;103501.94;5026734;28;20116;-72
2023/01/25 05:08:25;;;;;;;119.00;41.90;;;;;;;-0.62;95.43;103494.78;5011240;28;20040;-73
2023/01/25 05:10:52;;;;;;;121.05;41.85;;;;;;;-0.58;95.28;103502.00;5026761;28;20420;-74
2023/01/25 05:13:31;;;;;;;112.40;39.13;;;;;;;-0.58;95.51;103493.97;5027344;28;20026;-73
2023/01/25 05:16:07;;;;;;;120.13;38.78;;;;;;;-0.54;95.75;103495.81;5011819;28;20123;-73
2023/01/25 05:18:32;;;;;;;123.05;41.92;;;;;;;-0.53;95.52;103503.84;5026915;28;20441;-73
2023/01/25 05:20:57;;;;;;;123.13;42.80;;;;;;;-0.52;95.49;103500.31;5025897;28;20033;-73
2023/01/25 05:23:24;;;;;;;126.38;42.00;;;;;;;-0.52;95.28;103489.59;5010807;28;20503;-74
2023/01/25 05:28:36;;;;;;;126.60;43.42;;;;;;;-0.59;95.10;103482.38;5026922;28;20101;-73
2023/01/25 05:31:27;;;;;;;118.25;41.85;;;;;;;-0.56;95.43;103487.78;5026924;28;20021;-73
2023/01/25 05:33:52;;;;;;;118.13;39.97;;;;;;;-0.56;95.29;103489.53;5041485;28;20076;-74
2023/01/25 05:36:19;;;;;;;127.32;41.55;;;;;;;-0.59;95.26;103489.50;5040115;28;20041;-73
2023/01/25 05:38:45;;;;;;;117.53;42.75;;;;;;;-0.61;95.24;103496.59;5043543;28;20484;-74
2023/01/25 05:41:11;;;;;;;125.22;42.10;;;;;;;-0.60;95.25;103488.63;5027144;28;20124;-73
2023/01/25 05:43:37;;;;;;;113.15;40.30;;;;;;;-0.58;95.00;103491.28;5026743;28;20462;-73
2023/01/25 05:46:05;;;;;;;106.93;37.78;;;;;;;-0.60;94.92;103485.94;5026396;28;20503;-75
2023/01/25 05:48:30;;;;;;;117.30;40.58;;;;;;;-0.59;95.03;103490.41;5010213;28;20033;-73
2023/01/25 05:50:57;;;;;;;116.63;41.72;;;;;;;-0.59;95.15;103482.38;5026565;28;20040;-73
2023/01/25 05:53:24;;;;;;;109.35;38.65;;;;;;;-0.58;95.07;103486.84;5026651;28;20029;-74
2023/01/25 05:55:50;;;;;;;112.88;38.75;;;;;;;-0.60;95.14;103493.97;5026210;28;20037;-73
2023/01/25 05:58:16;;;;;;;121.88;38.30;;;;;;;-0.60;95.27;103493.06;5026735;28;20029;-75
2023/01/25 06:00:41;;;;;;;113.13;39.40;;;;;;;-0.64;94.85;103478.75;5026909;28;20485;-73
2023/01/25 06:03:08;;;;;;;112.93;36.22;;;;;;;-0.64;94.94;103484.09;5026207;28;20064;-73
2023/01/25 06:05:35;;;;;;;119.72;41.63;;;;;;;-0.69;94.73;103477.75;5026063;28;20065;-73
2023/01/25 06:08:01;;;;;;;107.47;37.17;;;;;;;-0.70;94.75;103485.75;5026469;28;20442;-73
2023/01/25 06:10:36;;;;;;;112.03;39.25;;;;;;;-0.71;95.22;103483.94;5025861;28;20029;-73
2023/01/25 06:13:02;;;;;;;107.47;37.10;;;;;;;-0.70;94.78;103486.66;5025476;28;20084;-74
2023/01/25 06:15:27;;;;;;;104.15;35.08;;;;;;;-0.72;93.87;103488.41;5025979;28;20033;-73
2023/01/25 06:17:58;;;;;;;110.25;38.95;;;;;;;-0.83;93.87;103492.66;5026085;28;20017;-73
2023/01/25 06:20:37;;;;;;;114.32;38.10;;;;;;;-0.87;93.96;103491.72;5025032;28;20493;-73
2023/01/25 06:23:06;;;;;;;97.57;35.97;;;;;;;-0.87;94.85;103489.03;5027549;28;20130;-73
2023/01/25 06:25:31;;;;;;;102.10;38.60;;;;;;;-0.88;94.78;103484.56;5041082;28;20456;-74
2023/01/25 06:27:56;;;;;;;115.90;40.55;;;;;;;-0.87;94.69;103491.72;5033583;28;20045;-74
2023/01/25 06:30:22;;;;;;;102.45;36.72;;;;;;;-0.87;94.85;103488.13;5027643;28;20501;-73
2023/01/25 06:32:49;;;;;;;109.03;38.03;;;;;;;-0.86;94.85;103484.59;5037048;28;20052;-74
2023/01/25 06:35:14;;;;;;;106.53;36.85;;;;;;;-0.81;95.39;103488.25;5036746;28;20033;-73
2023/01/25 06:37:40;;;;;;;108.65;37.00;;;;;;;-0.80;94.99;103484.69;5025524;28;20415;-73
2023/01/25 06:40:05;;;;;;;115.85;39.10;;;;;;;-0.78;95.19;103486.53;5027027;28;20586;-73
2023/01/25 06:42:31;;;;;;;108.18;36.15;;;;;;;-0.79;95.24;103478.50;5026969;28;20977;-73
2023/01/25 06:44:56;;;;;;;108.70;37.83;;;;;;;-0.81;95.14;103480.22;5028340;28;20381;-73
2023/01/25 06:47:21;;;;;;;102.50;35.08;;;;;;;-0.83;94.72;103482.88;5047232;28;20357;-73
2023/01/25 06:49:47;;;;;;;109.82;38.20;;;;;;;-0.85;94.01;103476.59;5039246;28;20075;-74
2023/01/25 06:52:12;;;;;;;120.05;38.53;;;;;;;-0.88;94.16;103481.91;5026211;28;20418;-74
2023/01/25 06:54:37;;;;;;;107.88;37.10;;;;;;;-0.87;94.50;103475.69;5026973;28;20124;-73
2023/01/25 06:57:03;;;;;;;109.20;36.42;;;;;;;-0.85;94.73;103473.91;5027003;28;20037;-73
2023/01/25 06:59:28;;;;;;;106.35;38.42;;;;;;;-0.83;94.81;103474.84;5025772;28;20175;-73
2023/01/25 07:01:53;;;;;;;104.63;37.55;;;;;;;-0.81;94.90;103475.78;5027008;28;20141;-73
2023/01/25 07:04:19;;;;;;;105.53;37.13;;;;;;;-0.82;95.25;103470.41;5026929;28;20029;-74
2023/01/25 07:06:44;;;;;;;111.25;38.72;;;;;;;-0.81;95.26;103473.09;5027389;28;20548;-74
2023/01/25 07:09:12;;;;;;;105.15;37.13;;;;;;;-0.83;94.70;103468.63;5026697;28;20555;-73
2023/01/25 07:11:37;;;;;;;106.00;36.83;;;;;;;-0.84;94.43;103475.75;5026959;28;20370;-73
2023/01/25 07:14:03;;;;;;;107.78;38.47;;;;;;;-0.86;95.28;103469.44;5026780;28;20057;-73
2023/01/25 07:16:35;;;;;;;104.07;36.85;;;;;;;-0.83;95.79;103473.97;5027219;28;20033;-73
2023/01/25 07:19:01;;;;;;;118.55;38.83;;;;;;;-0.81;95.63;103478.44;5026432;28;20037;-74
2023/01/25 07:21:26;;;;;;;115.05;38.28;;;;;;;-0.79;95.87;103478.50;5042981;28;20096;-74
2023/01/25 07:23:52;;;;;;;104.93;34.25;;;;;;;-0.77;95.87;103482.97;5045917;28;20566;-75
2023/01/25 07:26:18;;;;;;;105.07;35.65;;;;;;;-0.75;95.40;103479.41;5029310;28;20473;-73
2023/01/25 07:28:46;;;;;;;108.90;38.47;;;;;;;-0.79;95.09;103482.06;5049548;28;20059;-73
2023/01/25 07:31:11;;;;;;;111.18;37.67;;;;;;;-0.82;95.15;103478.44;5050653;28;20029;-74
2023/01/25 07:33:36;;;;;;;110.03;37.30;;;;;;;-0.84;95.44;103465.06;5049005;28;20037;-73
2023/01/25 07:36:04;;;;;;;108.05;36.75;;;;;;;-0.80;95.59;103465.97;5033291;28;20071;-73
2023/01/25 07:38:30;;;;;;;108.80;39.00;;;;;;;-0.81;95.12;103464.19;5030440;28;20087;-73
2023/01/25 07:40:56;;;;;;;113.05;38.80;;;;;;;-0.84;94.62;103464.13;5046476;28;20037;-75
2023/01/25 07:43:21;;;;;;;103.68;35.88;;;;;;;-0.83;95.01;103460.59;5031451;28;20044;-73
2023/01/25 07:45:50;;;;;;;102.88;37.00;;;;;;;-0.81;95.19;103466.84;5033549;28;20401;-74
2023/01/25 07:48:17;;;;;;;104.72;36.65;;;;;;;-0.84;93.92;103459.72;5029787;28;20043;-75
2023/01/25 07:50:45;;;;;;;105.72;36.97;;;;;;;-0.91;93.88;103459.56;5028562;28;20033;-74
2023/01/25 07:53:17;;;;;;;102.75;35.95;;;;;;;-1.00;94.56;103462.06;5030646;28;20116;-73
2023/01/25 07:55:42;;;;;;;116.30;37.08;;;;;;;-0.98;94.64;103461.25;5028273;28;20122;-73
2023/01/25 07:58:10;;;;;;;121.10;38.72;;;;;;;-0.97;94.29;103456.78;5028354;28;20127;-73
2023/01/25 08:00:35;;;;;;;107.60;38.03;;;;;;;-0.98;94.32;103463.91;5029899;28;20030;-73
2023/01/25 08:03:01;;;;;;;102.45;37.10;;;;;;;-0.99;94.61;103462.09;5029888;28;20047;-73
2023/01/25 08:05:26;;;;;;;115.30;38.72;;;;;;;-1.00;94.91;103462.97;5027362;28;20053;-73
2023/01/25 08:07:52;;;;;;;104.70;36.70;;;;;;;-1.01;95.54;103458.50;5027943;28;20061;-75
2023/01/25 08:10:17;;;;;;;102.88;37.00;;;;;;;-1.08;94.93;103446.78;5040897;28;20028;-74
2023/01/25 08:12:46;;;;;;;106.15;34.65;;;;;;;-1.04;94.88;103453.09;5050210;28;20396;-73
2023/01/25 08:15:13;;;;;;;109.38;37.58;;;;;;;-1.01;95.63;103447.81;5032176;28;20033;-73
2023/01/25 08:17:38;;;;;;;110.72;35.90;;;;;;;-0.97;96.11;103455.03;5030205;28;20025;-73
2023/01/25 08:20:05;;;;;;;115.05;36.60;;;;;;;-0.92;95.95;103453.31;5033772;28;20107;-73
2023/01/25 08:22:30;;;;;;;112.70;38.63;;;;;;;-0.91;95.74;103451.53;5049114;28;20047;-73
2023/01/25 08:24:55;;;;;;;122.15;39.17;;;;;;;-0.90;95.28;103456.00;5039762;28;20376;-72
2023/01/25 08:27:21;;;;;;;110.03;39.35;;;;;;;-0.91;94.86;103452.44;5029241;28;20567;-73
2023/01/25 08:29:49;;;;;;;119.30;39.42;;;;;;;-0.94;94.61;103444.38;5029364;28;20049;-73
2023/01/25 08:32:15;;;;;;;110.85;37.35;;;;;;;-0.91;95.01;103441.75;5035325;28;20029;-73
2023/01/25 08:34:41;;;;;;;115.70;37.95;;;;;;;-0.87;94.94;103440.03;5043164;28;20087;-73
2023/01/25 08:37:06;;;;;;;121.45;37.53;;;;;;;-0.85;94.92;103439.19;5027796;28;20503;-73
2023/01/25 08:39:31;;;;;;;103.05;35.53;;;;;;;-0.82;95.42;103439.25;5029263;28;20040;-72
2023/01/25 08:41:57;;;;;;;121.50;37.83;;;;;;;-0.80;95.48;103439.25;5029139;28;20112;-73
2023/01/25 08:44:24;;;;;;;113.43;38.67;;;;;;;-0.78;95.17;103435.75;5028850;28;20042;-73
2023/01/25 08:46:50;;;;;;;116.65;40.75;;;;;;;-0.79;94.98;103446.41;5029127;28;20037;-72
2023/01/25 08:49:15;;;;;;;117.40;38.55;;;;;;;-0.79;95.27;103443.75;5028570;28;20132;-74
2023/01/25 08:51:41;;;;;;;108.25;35.05;;;;;;;-0.81;95.04;103443.69;5028331;28;20033;-73
2023/01/25 08:54:09;;;;;;;125.38;37.85;;;;;;;-0.79;95.35;103446.41;5028589;28;20048;-73
2023/01/25 08:56:41;;;;;;;107.30;38.95;;;;;;;-0.80;95.47;103445.50;5027877;28;20049;-73
2023/01/25 08:59:10;;;;;;;108.97;39.13;;;;;;;-0.81;94.93;103438.34;5028392;28;20675;-74
2023/01/25 09:01:35;;;;;;;106.32;37.50;;;;;;;-0.80;94.92;103433.91;5028756;28;20300;-73
2023/01/25 09:04:00;;;;;;;108.38;37.00;;;;;;;-0.78;95.48;103429.50;5028074;28;20044;-74
2023/01/25 09:06:26;;;;;;;110.55;39.53;;;;;;;-0.73;95.19;103421.56;5043693;28;20655;-73
2023/01/25 09:08:51;;;;;;;113.40;38.08;;;;;;;-0.70;95.80;103416.25;5047620;28;20479;-72
2023/01/25 09:11:20;;;;;;;117.57;38.42;;;;;;;-0.68;95.02;103420.75;5029155;28;20033;-74
2023/01/25 09:13:47;;;;;;;110.95;37.92;;;;;;;-0.67;95.27;103421.66;5038058;28;20029;-75
2023/01/25 09:16:29;;;;;;;121.90;38.80;;;;;;;-0.65;95.58;103420.81;5046622;28;20068;-73
2023/01/25 09:19:00;;;;;;;108.65;38.17;;;;;;;-0.64;95.01;103422.59;5027772;28;20103;-73
2023/01/25 09:21:26;;;;;;;104.90;37.22;;;;;;;-0.63;94.28;103423.50;5027539;28;20036;-73
2023/01/25 09:23:52;;;;;;;105.82;35.60;;;;;;;-0.65;94.44;103417.25;5027980;28;20033;-74
2023/01/25 09:26:18;;;;;;;107.15;38.65;;;;;;;-0.63;95.38;103412.81;5028775;28;20381;-74
2023/01/25 09:28:49;;;;;;;106.53;37.65;;;;;;;-0.60;95.44;103411.09;5028793;28;20040;-72
2023/01/25 09:31:15;;;;;;;118.80;37.97;;;;;;;-0.59;95.43;103417.31;5029353;28;20530;-74
2023/01/25 09:34:00;;;;;;;114.75;36.80;;;;;;;-0.55;95.39;103425.41;5026477;28;20128;-73
2023/01/25 09:36:25;;;;;;;114.22;38.70;;;;;;;-0.57;94.54;103421.81;5028062;28;20045;-74
2023/01/25 09:38:50;;;;;;;116.93;38.88;;;;;;;-0.59;94.43;103412.88;5027557;28;20465;-74
2023/01/25 09:41:24;;;;;;;108.97;36.92;;;;;;;-0.54;94.99;103418.28;5026928;28;20038;-73
2023/01/25 09:43:59;;;;;;;110.28;35.15;;;;;;;-0.50;95.51;103416.56;5027452;28;20053;-73
2023/01/25 09:46:30;;;;;;;105.60;36.25;;;;;;;-0.51;95.43;103410.31;5028222;28;20057;-73
2023/01/25 09:49:07;;;;;;;97.88;34.03;;;;;;;-0.48;95.25;103413.03;5026274;28;20150;-72
2023/01/25 09:51:42;;;;;;;101.47;35.95;;;;;;;-0.45;95.62;103407.72;5027328;28;20041;-73
2023/01/25 09:54:09;;;;;;;116.53;39.80;;;;;;;-0.44;95.30;103408.63;5027212;28;20587;-72
2023/01/25 09:56:37;;;;;;;111.30;37.47;;;;;;;-0.41;95.17;103411.34;5027961;28;20448;-73
2023/01/25 09:59:09;;;;;;;108.10;37.30;;;;;;;-0.42;95.01;103407.78;5027474;28;20108;-73
2023/01/25 10:01:47;;;;;;;;;;;;;;;-0.37;95.23;103413.19;5028157;28;20029;-73
2023/01/25 10:04:20;;;;;;;107.15;36.22;;;;;;;-0.49;94.65;103419.25;5044793;28;19940;-73
2023/01/25 10:06:50;;;;;;;111.63;37.40;;;;;;;-0.49;94.90;103419.25;5027539;28;20037;-72
2023/01/25 10:09:46;;;;;;;105.47;34.60;;;;;;;-0.46;94.67;103410.41;5027641;28;20025;-75
2023/01/25 10:12:24;;;;;;;101.93;35.20;;;;;;;-0.46;93.31;103405.03;5028158;28;20048;-72
2023/01/25 10:14:50;;;;;;;110.90;37.95;;;;;;;-0.55;93.28;103400.47;5025966;28;20212;-73
2023/01/25 10:17:28;;;;;;;102.03;34.78;;;;;;;-0.56;92.61;103399.56;5027352;28;20034;-72
2023/01/25 10:20:15;;;;;;;111.00;38.40;;;;;;;-0.60;94.03;103389.69;5029811;28;20035;-73
2023/01/25 10:23:04;;;;;;;112.63;36.22;;;;;;;-0.60;93.34;103389.69;5046111;28;20116;-73
2023/01/25 10:25:37;;;;;;;105.32;36.50;;;;;;;-0.57;93.37;103404.88;5033764;28;20045;-73
2023/01/25 10:28:21;;;;;;;113.30;39.00;;;;;;;-0.62;93.30;103396.78;5036976;28;20064;-73
2023/01/25 10:30:56;;;;;;;108.07;38.63;;;;;;;-0.61;94.00;103393.22;5047052;28;20033;-73
2023/01/25 10:33:22;;;;;;;109.03;37.70;;;;;;;-0.55;94.64;103387.09;5032773;28;20568;-73
2023/01/25 10:35:49;;;;;;;123.03;38.08;;;;;;;-0.48;94.88;103380.03;5026670;28;20127;-73
2023/01/25 10:38:23;;;;;;;111.20;36.13;;;;;;;-0.44;94.91;103374.75;5029883;28;20378;-74
2023/01/25 10:40:55;;;;;;;116.15;37.25;;;;;;;-0.44;94.40;103369.41;5031481;28;20105;-72
2023/01/25 10:43:21;;;;;;;113.40;36.28;;;;;;;-0.45;94.31;103358.72;5039632;28;20154;-72
2023/01/25 10:45:49;;;;;;;114.90;37.25;;;;;;;-0.44;94.42;103356.03;5046810;28;20049;-73
2023/01/25 10:48:35;;;;;;;101.85;34.25;;;;;;;-0.40;94.45;103343.63;5047717;28;20476;-73
2023/01/25 10:51:00;;;;;;;105.20;34.30;;;;;;;-0.37;93.87;103346.34;5026747;28;20510;-73
2023/01/25 10:53:38;;;;;;;104.97;36.15;;;;;;;-0.38;93.95;103339.19;5027279;28;20037;-73
2023/01/25 10:56:07;;;;;;;105.70;34.80;;;;;;;-0.38;93.94;103334.72;5043878;28;20147;-72
2023/01/25 10:58:35;;;;;;;106.82;36.55;;;;;;;-0.35;94.28;103336.56;5047090;28;20116;-73
2023/01/25 11:01:02;;;;;;;106.07;36.67;;;;;;;-0.34;93.80;103331.22;5050088;28;20033;-73
2023/01/25 11:03:40;;;;;;;99.35;34.03;;;;;;;-0.34;93.57;103324.97;5050029;28;20052;-73
2023/01/25 11:06:07;;;;;;;108.15;34.25;;;;;;;-0.36;93.79;103319.63;5029927;28;20304;-73
2023/01/25 11:08:39;;;;;;;101.70;32.30;;;;;;;-0.33;93.72;103308.03;5030703;28;20029;-73
2023/01/25 11:11:35;;;;;;;110.85;36.38;;;;;;;-0.29;93.68;103300.06;5030605;28;20033;-73
2023/01/25 11:14:13;;;;;;;99.88;35.40;;;;;;;-0.32;93.05;103302.72;5030532;28;20033;-73